| time (UTC) | temp F | wind direction | speed MPH | gust MPH | rain 1hr in | rain 24hr in | rain mn in | humidity % | barometer mb |
| 20260502211538 | 56 | 0 | 0.0 | 6.0 | 0.00 | 0.00 | 0.00 | 33 | 1018.7 |
| 20260502211026 | 57 | 0 | 0.0 | 6.0 | 0.00 | 0.00 | 0.00 | 33 | 1018.8 |
| 20260502210526 | 57 | 0 | 0.0 | 4.0 | 0.00 | 0.00 | 0.00 | 32 | 1018.8 |
| 20260502210049 | 59 | 0 | 0.0 | 7.0 | 0.00 | 0.00 | 0.00 | 33 | 1018.8 |
| 20260502205526 | 59 | 0 | 0.0 | 7.0 | 0.00 | 0.00 | 0.00 | 33 | 1018.8 |
| 20260502205026 | 57 | 0 | 0.0 | 0.0 | 0.00 | 0.00 | 0.00 | 39 | 1018.8 |
| 20260502204548 | 57 | 0 | 0.0 | 3.0 | 0.00 | 0.00 | 0.00 | 33 | 1018.9 |
| 20260502204026 | 58 | 0 | 0.0 | 6.0 | 0.00 | 0.00 | 0.00 | 32 | 1019.0 |
| 20260502203528 | 59 | 0 | 0.0 | 6.0 | 0.00 | 0.00 | 0.00 | 32 | 1019.1 |
| 20260502203046 | 58 | 287 | 0.0 | 6.0 | 0.00 | 0.00 | 0.00 | 39 | 1019.1 |
| 20260502202525 | 58 | 0 | 0.0 | 6.0 | 0.00 | 0.00 | 0.00 | 33 | 1019.2 |
| 20260502202025 | 59 | 0 | 0.0 | 4.0 | 0.00 | 0.00 | 0.00 | 33 | 1019.2 |
| 20260502201538 | 59 | 0 | 0.0 | 6.0 | 0.00 | 0.00 | 0.00 | 35 | 1019.2 |
| 20260502201027 | 58 | 0 | 0.0 | 6.0 | 0.00 | 0.00 | 0.00 | 38 | 1019.2 |
| 20260502200526 | 57 | 0 | 0.0 | 6.0 | 0.00 | 0.00 | 0.00 | 38 | 1019.2 |
| 20260502200039 | 56 | 0 | 0.0 | 0.0 | 0.00 | 0.00 | 0.00 | 36 | 1019.4 |
| 20260502195526 | 56 | 0 | 0.0 | 1.0 | 0.00 | 0.00 | 0.00 | 36 | 1019.4 |
| 20260502195026 | 57 | 0 | 0.0 | 3.0 | 0.00 | 0.00 | 0.00 | 33 | 1019.4 |
| 20260502194534 | 56 | 0 | 0.0 | 3.0 | 0.00 | 0.00 | 0.00 | 33 | 1019.5 |
| 20260502194026 | 55 | 0 | 0.0 | 2.0 | 0.00 | 0.00 | 0.00 | 33 | 1019.6 |
| 20260502193526 | 55 | 0 | 0.0 | 2.0 | 0.00 | 0.00 | 0.00 | 36 | 1019.6 |
| 20260502193040 | 55 | 0 | 0.0 | 0.0 | 0.00 | 0.00 | 0.00 | 35 | 1019.7 |
| 20260502192527 | 55 | 0 | 0.0 | 0.0 | 0.00 | 0.00 | 0.00 | 35 | 1019.6 |
| 20260502192026 | 55 | 0 | 0.0 | 3.0 | 0.00 | 0.00 | 0.00 | 35 | 1019.7 |
| 20260502191542 | 55 | 0 | 0.0 | 3.0 | 0.00 | 0.00 | 0.00 | 35 | 1019.8 |
| 20260502191028 | 55 | 0 | 0.0 | 3.0 | 0.00 | 0.00 | 0.00 | 35 | 1019.9 |
| 20260502190526 | 54 | 0 | 0.0 | 1.0 | 0.00 | 0.00 | 0.00 | 37 | 1019.9 |
| 20260502190043 | 54 | 0 | 0.0 | 1.0 | 0.00 | 0.00 | 0.00 | 35 | 1020.0 |
| 20260502185525 | 54 | 0 | 0.0 | 2.0 | 0.00 | 0.00 | 0.00 | 34 | 1020.0 |
| 20260502185025 | 54 | 0 | 0.0 | 2.0 | 0.00 | 0.00 | 0.00 | 37 | 1020.0 |
| 20260502184540 | 54 | 0 | 0.0 | 7.0 | 0.00 | 0.00 | 0.00 | 37 | 1020.1 |
| 20260502184026 | 53 | 0 | 0.0 | 7.0 | 0.00 | 0.00 | 0.00 | 33 | 1020.1 |
| 20260502183526 | 53 | 0 | 0.0 | 7.0 | 0.00 | 0.00 | 0.00 | 37 | 1020.2 |
| 20260502183042 | 54 | 0 | 0.0 | 4.0 | 0.00 | 0.00 | 0.00 | 35 | 1020.1 |
| 20260502182526 | 54 | 0 | 0.0 | 3.0 | 0.00 | 0.00 | 0.00 | 34 | 1020.2 |
| 20260502182026 | 54 | 0 | 0.0 | 8.0 | 0.00 | 0.00 | 0.00 | 37 | 1020.2 |
| 20260502181545 | 54 | 0 | 0.0 | 8.0 | 0.00 | 0.00 | 0.00 | 38 | 1020.2 |
| 20260502181026 | 53 | 0 | 0.0 | 8.0 | 0.00 | 0.00 | 0.00 | 34 | 1020.3 |
| 20260502180526 | 53 | 0 | 0.0 | 1.0 | 0.00 | 0.00 | 0.00 | 36 | 1020.3 |
| 20260502164026 | 53 | 0 | 0.0 | 3.0 | 0.00 | 0.00 | 0.00 | 39 | 1020.8 |
| 20260502163526 | 53 | 0 | 0.0 | 3.0 | 0.00 | 0.00 | 0.00 | 38 | 1020.8 |
| 20260502163048 | 52 | 0 | 0.0 | 0.0 | 0.00 | 0.00 | 0.00 | 41 | 1020.8 |
| 20260502162526 | 52 | 0 | 0.0 | 8.0 | 0.00 | 0.00 | 0.00 | 40 | 1020.7 |
| 20260502162025 | 51 | 0 | 0.0 | 8.0 | 0.00 | 0.00 | 0.00 | 36 | 1020.9 |
| 20260502161538 | 52 | 0 | 0.0 | 8.0 | 0.00 | 0.00 | 0.00 | 38 | 1020.9 |
| 20260502161026 | 52 | 0 | 0.0 | 8.0 | 0.00 | 0.00 | 0.00 | 36 | 1020.9 |
| 20260502160526 | 52 | 0 | 0.0 | 4.0 | 0.00 | 0.00 | 0.00 | 40 | 1020.9 |
| 20260502152026 | 52 | 0 | 0.0 | 6.0 | 0.00 | 0.00 | 0.00 | 37 | 1020.8 |
| 20260502151552 | 51 | 0 | 0.0 | 6.0 | 0.00 | 0.00 | 0.00 | 39 | 1020.9 |
| 20260502151026 | 51 | 0 | 0.0 | 0.0 | 0.00 | 0.00 | 0.00 | 38 | 1020.8 |
| 20260502150625 | 52 | 0 | 0.0 | 0.0 | 0.00 | 0.00 | 0.00 | 39 | 1020.8 |
| 20260502130525 | 44 | 0 | 0.0 | 0.0 | 0.00 | 0.00 | 0.00 | 64 | 1020.5 |
| 20260502123527 | 42 | 0 | 0.0 | 0.0 | 0.00 | 0.00 | 0.00 | 74 | 1020.3 |
| 20260502123048 | 41 | 0 | 0.0 | 0.0 | 0.00 | 0.00 | 0.00 | 76 | 1020.3 |
| 20260502122530 | 40 | 0 | 0.0 | 0.0 | 0.00 | 0.00 | 0.00 | 79 | 1020.3 |
| 20260502122028 | 40 | 0 | 0.0 | 0.0 | 0.00 | 0.00 | 0.00 | 81 | 1020.4 |
| 20260502121538 | 39 | 0 | 0.0 | 0.0 | 0.00 | 0.00 | 0.00 | 81 | 1020.5 |
| 20260502121026 | 39 | 0 | 0.0 | 0.0 | 0.00 | 0.00 | 0.00 | 82 | 1020.3 |
| 20260502120528 | 38 | 0 | 0.0 | 0.0 | 0.00 | 0.00 | 0.00 | 83 | 1020.4 |
| 20260502115526 | 38 | 0 | 0.0 | 0.0 | 0.00 | 0.00 | 0.00 | 83 | 1020.1 |
| 20260502115029 | 38 | 0 | 0.0 | 0.0 | 0.00 | 0.00 | 0.00 | 83 | 1020.0 |
| 20260502114541 | 38 | 0 | 0.0 | 0.0 | 0.00 | 0.00 | 0.00 | 83 | 1020.1 |
| 20260502114022 | 38 | 0 | 0.0 | 0.0 | 0.00 | 0.00 | 0.00 | 83 | 1020.0 |
| 20260502113526 | 38 | 0 | 0.0 | 0.0 | 0.00 | 0.00 | 0.00 | 83 | 1020.0 |
| 20260502113039 | 38 | 0 | 0.0 | 0.0 | 0.00 | 0.00 | 0.00 | 83 | 1019.9 |
| 20260502112526 | 38 | 0 | 0.0 | 0.0 | 0.00 | 0.00 | 0.00 | 83 | 1019.8 |
| 20260502112026 | 38 | 0 | 0.0 | 0.0 | 0.00 | 0.00 | 0.00 | 83 | 1019.9 |
| 20260502111540 | 38 | 0 | 0.0 | 0.0 | 0.00 | 0.00 | 0.00 | 83 | 1019.9 |
| 20260502111025 | 38 | 0 | 0.0 | 0.0 | 0.00 | 0.00 | 0.00 | 84 | 1020.0 |
| 20260502110526 | 38 | 0 | 0.0 | 0.0 | 0.00 | 0.00 | 0.00 | 84 | 1019.8 |
| 20260502110036 | 38 | 0 | 0.0 | 0.0 | 0.00 | 0.00 | 0.00 | 84 | 1019.9 |
| 20260502105529 | 38 | 0 | 0.0 | 0.0 | 0.00 | 0.00 | 0.00 | 84 | 1019.8 |
| 20260502105025 | 38 | 0 | 0.0 | 0.0 | 0.00 | 0.00 | 0.00 | 84 | 1019.8 |
| 20260502104537 | 38 | 0 | 0.0 | 0.0 | 0.00 | 0.00 | 0.00 | 84 | 1019.8 |
| 20260502104025 | 38 | 0 | 0.0 | 0.0 | 0.00 | 0.00 | 0.00 | 84 | 1019.8 |
| 20260502103529 | 38 | 0 | 0.0 | 0.0 | 0.00 | 0.00 | 0.00 | 83 | 1019.8 |
| 20260502103038 | 38 | 0 | 0.0 | 0.0 | 0.00 | 0.00 | 0.00 | 83 | 1019.9 |
| 20260502102529 | 38 | 0 | 0.0 | 0.0 | 0.00 | 0.00 | 0.00 | 83 | 1019.9 |
| 20260502102027 | 38 | 0 | 0.0 | 0.0 | 0.00 | 0.00 | 0.00 | 82 | 1019.9 |
| 20260502101548 | 38 | 0 | 0.0 | 0.0 | 0.00 | 0.00 | 0.00 | 82 | 1020.0 |
| 20260502101026 | 38 | 0 | 0.0 | 0.0 | 0.00 | 0.00 | 0.00 | 82 | 1019.9 |
| 20260502100525 | 38 | 0 | 0.0 | 0.0 | 0.00 | 0.00 | 0.00 | 82 | 1019.9 |
| 20260502091025 | 39 | 0 | 0.0 | 0.0 | 0.00 | 0.00 | 0.00 | 81 | 1019.7 |
| 20260502090525 | 39 | 0 | 0.0 | 0.0 | 0.00 | 0.00 | 0.00 | 82 | 1019.8 |
| 20260502071025 | 38 | 0 | 0.0 | 0.0 | 0.00 | 0.01 | 0.00 | 82 | 1019.3 |
| 20260502070525 | 38 | 0 | 0.0 | 0.0 | 0.00 | 0.01 | 0.00 | 82 | 1019.3 |
| 20260502070048 | 38 | 0 | 0.0 | 0.0 | 0.00 | 0.01 | 0.00 | 82 | 1019.3 |
| 20260502065526 | 38 | 0 | 0.0 | 0.0 | 0.00 | 0.01 | 0.00 | 82 | 1019.3 |
| 20260502065025 | 39 | 0 | 0.0 | 0.0 | 0.00 | 0.01 | 0.00 | 82 | 1019.4 |
| 20260502064538 | 39 | 0 | 0.0 | 0.0 | 0.00 | 0.01 | 0.00 | 82 | 1019.3 |
| 20260502064030 | 39 | 0 | 0.0 | 0.0 | 0.00 | 0.01 | 0.00 | 81 | 1019.3 |
| 20260502063527 | 39 | 0 | 0.0 | 0.0 | 0.00 | 0.01 | 0.00 | 80 | 1019.3 |
| 20260502063041 | 39 | 0 | 0.0 | 0.0 | 0.00 | 0.01 | 0.00 | 80 | 1019.4 |
| 20260502062526 | 39 | 0 | 0.0 | 0.0 | 0.00 | 0.01 | 0.00 | 80 | 1019.4 |
| 20260502062026 | 39 | 0 | 0.0 | 0.0 | 0.00 | 0.01 | 0.00 | 80 | 1019.2 |
| 20260502061540 | 39 | 0 | 0.0 | 0.0 | 0.00 | 0.01 | 0.00 | 80 | 1019.3 |
| 20260502061024 | 39 | 0 | 0.0 | 0.0 | 0.00 | 0.01 | 0.00 | 81 | 1019.4 |
| 20260502060525 | 40 | 0 | 0.0 | 0.0 | 0.00 | 0.01 | 0.00 | 82 | 1019.4 |
| 20260502060038 | 40 | 0 | 0.0 | 0.0 | 0.00 | 0.01 | 0.00 | 82 | 1019.4 |
| 20260502055526 | 40 | 0 | 0.0 | 0.0 | 0.00 | 0.01 | 0.00 | 82 | 1019.5 |
| 20260502055026 | 40 | 0 | 0.0 | 0.0 | 0.00 | 0.01 | 0.00 | 81 | 1019.5 |
| 20260502054536 | 41 | 0 | 0.0 | 0.0 | 0.00 | 0.01 | 0.00 | 81 | 1019.5 |
| 20260502054028 | 41 | 0 | 0.0 | 0.0 | 0.00 | 0.01 | 0.00 | 82 | 1019.5 |
| 20260502053525 | 41 | 0 | 0.0 | 0.0 | 0.00 | 0.01 | 0.00 | 82 | 1019.6 |
| 20260502053047 | 41 | 0 | 0.0 | 0.0 | 0.00 | 0.01 | 0.00 | 82 | 1019.5 |
| 20260502052526 | 42 | 0 | 0.0 | 0.0 | 0.00 | 0.01 | 0.00 | 82 | 1019.5 |
| 20260502052025 | 42 | 0 | 0.0 | 0.0 | 0.00 | 0.01 | 0.00 | 82 | 1019.5 |
| 20260502051541 | 42 | 0 | 0.0 | 0.0 | 0.00 | 0.01 | 0.00 | 82 | 1019.4 |
| 20260502051028 | 42 | 0 | 0.0 | 0.0 | 0.00 | 0.01 | 0.00 | 83 | 1019.3 |
| 20260502050535 | 42 | 0 | 0.0 | 0.0 | 0.00 | 0.01 | 0.00 | 82 | 1019.4 |
| 20260502050039 | 42 | 0 | 0.0 | 0.0 | 0.00 | 0.01 | 0.00 | 82 | 1019.4 |
| 20260502045525 | 42 | 0 | 0.0 | 0.0 | 0.00 | 0.01 | 0.01 | 81 | 1019.4 |
| 20260502045025 | 42 | 0 | 0.0 | 0.0 | 0.00 | 0.01 | 0.01 | 81 | 1019.4 |
| 20260502044538 | 42 | 0 | 0.0 | 0.0 | 0.00 | 0.01 | 0.01 | 81 | 1019.3 |
| 20260502044024 | 42 | 0 | 0.0 | 0.0 | 0.00 | 0.01 | 0.01 | 80 | 1019.3 |
| 20260502043525 | 42 | 0 | 0.0 | 0.0 | 0.00 | 0.01 | 0.01 | 80 | 1019.2 |
| 20260502043039 | 42 | 0 | 0.0 | 0.0 | 0.00 | 0.01 | 0.01 | 80 | 1019.1 |
| 20260502042526 | 42 | 0 | 0.0 | 0.0 | 0.00 | 0.01 | 0.01 | 80 | 1019.1 |
| 20260502042025 | 42 | 0 | 0.0 | 0.0 | 0.00 | 0.01 | 0.01 | 80 | 1018.9 |
| 20260502041539 | 43 | 0 | 0.0 | 0.0 | 0.00 | 0.01 | 0.01 | 80 | 1019.0 |
| 20260502041026 | 43 | 0 | 0.0 | 0.0 | 0.00 | 0.01 | 0.01 | 80 | 1019.0 |
| 20260502040526 | 43 | 0 | 0.0 | 0.0 | 0.00 | 0.01 | 0.01 | 79 | 1019.1 |
| 20260502040040 | 43 | 0 | 0.0 | 0.0 | 0.00 | 0.01 | 0.01 | 79 | 1019.1 |
| 20260502035525 | 43 | 0 | 0.0 | 0.0 | 0.00 | 0.13 | 0.01 | 79 | 1019.2 |
| 20260502035028 | 43 | 0 | 0.0 | 0.0 | 0.00 | 0.13 | 0.01 | 79 | 1019.2 |
| 20260502034544 | 43 | 0 | 0.0 | 0.0 | 0.00 | 0.13 | 0.01 | 78 | 1019.2 |
| 20260502034027 | 43 | 0 | 0.0 | 0.0 | 0.00 | 0.13 | 0.01 | 79 | 1019.0 |
| 20260502033526 | 44 | 0 | 0.0 | 0.0 | 0.00 | 0.13 | 0.01 | 78 | 1019.0 |
| 20260502033041 | 44 | 0 | 0.0 | 0.0 | 0.00 | 0.13 | 0.01 | 77 | 1018.9 |
| 20260502032525 | 44 | 0 | 0.0 | 0.0 | 0.00 | 0.13 | 0.01 | 77 | 1018.9 |
| 20260502032028 | 44 | 0 | 0.0 | 0.0 | 0.00 | 0.13 | 0.01 | 76 | 1018.9 |
| 20260502031536 | 45 | 0 | 0.0 | 0.0 | 0.00 | 0.13 | 0.01 | 75 | 1018.9 |
| 20260502031025 | 45 | 0 | 0.0 | 0.0 | 0.00 | 0.13 | 0.01 | 74 | 1018.8 |
| 20260502030526 | 45 | 0 | 0.0 | 0.0 | 0.00 | 0.13 | 0.01 | 74 | 1018.8 |
| 20260502030035 | 45 | 0 | 0.0 | 0.0 | 0.00 | 0.13 | 0.01 | 74 | 1018.7 |
| 20260502025525 | 46 | 0 | 0.0 | 0.0 | 0.00 | 0.13 | 0.01 | 74 | 1018.6 |
| 20260502025025 | 46 | 0 | 0.0 | 0.0 | 0.00 | 0.13 | 0.01 | 73 | 1018.5 |
| 20260502024553 | 46 | 0 | 0.0 | 0.0 | 0.00 | 0.13 | 0.01 | 73 | 1018.5 |
| 20260502024029 | 47 | 0 | 0.0 | 0.0 | 0.00 | 0.13 | 0.01 | 72 | 1018.4 |
| 20260502023525 | 47 | 0 | 0.0 | 0.0 | 0.00 | 0.13 | 0.01 | 71 | 1018.2 |
| 20260502023040 | 47 | 0 | 0.0 | 0.0 | 0.00 | 0.13 | 0.01 | 71 | 1018.3 |
| 20260502022525 | 47 | 0 | 0.0 | 0.0 | 0.00 | 0.13 | 0.01 | 69 | 1018.2 |
| 20260502022024 | 47 | 0 | 0.0 | 0.0 | 0.00 | 0.13 | 0.01 | 68 | 1018.2 |
| 20260502021541 | 48 | 0 | 0.0 | 0.0 | 0.00 | 0.13 | 0.01 | 68 | 1018.1 |
| 20260502021026 | 48 | 0 | 0.0 | 0.0 | 0.00 | 0.13 | 0.01 | 67 | 1018.0 |
| 20260502020525 | 48 | 0 | 0.0 | 0.0 | 0.00 | 0.13 | 0.01 | 67 | 1017.9 |
| 20260502020040 | 48 | 0 | 0.0 | 0.0 | 0.00 | 0.13 | 0.01 | 67 | 1017.9 |
| 20260502015525 | 48 | 0 | 0.0 | 0.0 | 0.00 | 0.13 | 0.01 | 65 | 1017.9 |
| 20260502015025 | 48 | 0 | 0.0 | 0.0 | 0.00 | 0.13 | 0.01 | 66 | 1017.8 |
| 20260502014539 | 48 | 0 | 0.0 | 0.0 | 0.00 | 0.13 | 0.01 | 66 | 1017.7 |
| 20260502014024 | 48 | 0 | 0.0 | 0.0 | 0.00 | 0.13 | 0.01 | 67 | 1017.7 |
| 20260502013525 | 48 | 0 | 0.0 | 0.0 | 0.00 | 0.13 | 0.01 | 67 | 1017.7 |
| 20260502013035 | 48 | 0 | 0.0 | 0.0 | 0.00 | 0.13 | 0.01 | 66 | 1017.7 |
| 20260502012525 | 48 | 0 | 0.0 | 0.0 | 0.00 | 0.13 | 0.01 | 68 | 1017.6 |
| 20260502012025 | 48 | 0 | 0.0 | 0.0 | 0.00 | 0.13 | 0.01 | 69 | 1017.5 |
| 20260502011534 | 48 | 0 | 0.0 | 0.0 | 0.00 | 0.13 | 0.01 | 70 | 1017.5 |
| 20260502011024 | 49 | 0 | 0.0 | 0.0 | 0.00 | 0.13 | 0.01 | 70 | 1017.5 |
| 20260502010524 | 49 | 0 | 0.0 | 0.0 | 0.00 | 0.13 | 0.01 | 70 | 1017.4 |
| 20260502010041 | 49 | 0 | 0.0 | 0.0 | 0.00 | 0.13 | 0.01 | 69 | 1017.2 |
| 20260502005525 | 49 | 0 | 0.0 | 0.0 | 0.00 | 0.13 | 0.01 | 66 | 1017.2 |
| 20260502005025 | 49 | 0 | 0.0 | 0.0 | 0.00 | 0.13 | 0.01 | 65 | 1017.3 |
| 20260502004537 | 50 | 0 | 0.0 | 0.0 | 0.00 | 0.13 | 0.01 | 64 | 1017.1 |
| 20260502004024 | 50 | 0 | 0.0 | 0.0 | 0.00 | 0.13 | 0.01 | 63 | 1017.1 |
| 20260502003525 | 50 | 0 | 0.0 | 0.0 | 0.00 | 0.13 | 0.01 | 63 | 1017.0 |
| 20260502003039 | 51 | 0 | 0.0 | 0.0 | 0.00 | 0.13 | 0.01 | 62 | 1016.9 |
| 20260502002524 | 51 | 0 | 0.0 | 0.0 | 0.00 | 0.13 | 0.01 | 61 | 1016.9 |
| 20260502002024 | 51 | 0 | 0.0 | 0.0 | 0.00 | 0.13 | 0.01 | 58 | 1016.9 |
| 20260502001538 | 51 | 0 | 0.0 | 0.0 | 0.00 | 0.13 | 0.01 | 56 | 1016.9 |
| 20260502001026 | 51 | 0 | 0.0 | 0.0 | 0.00 | 0.13 | 0.01 | 57 | 1017.0 |
| 20260502000526 | 51 | 0 | 0.0 | 0.0 | 0.00 | 0.13 | 0.01 | 58 | 1017.1 |
| 20260502000039 | 51 | 0 | 0.0 | 0.0 | 0.00 | 0.13 | 0.01 | 56 | 1016.8 |
| 20260501235525 | 51 | 0 | 0.0 | 0.0 | 0.00 | 0.13 | 0.01 | 57 | 1016.9 |
| 20260501235025 | 52 | 0 | 0.0 | 0.0 | 0.00 | 0.13 | 0.01 | 55 | 1017.0 |
| 20260501234543 | 52 | 0 | 0.0 | 0.0 | 0.00 | 0.13 | 0.01 | 56 | 1016.9 |
| 20260501234028 | 52 | 0 | 0.0 | 0.0 | 0.00 | 0.13 | 0.01 | 55 | 1016.8 |
| 20260501233524 | 52 | 0 | 0.0 | 0.0 | 0.00 | 0.13 | 0.01 | 54 | 1016.9 |
| 20260501233037 | 52 | 0 | 0.0 | 0.0 | 0.00 | 0.13 | 0.01 | 54 | 1016.9 |
| 20260501232525 | 52 | 0 | 0.0 | 0.0 | 0.00 | 0.13 | 0.01 | 54 | 1016.9 |
| 20260501232027 | 52 | 0 | 0.0 | 0.0 | 0.00 | 0.13 | 0.01 | 52 | 1016.8 |
| 20260501231536 | 52 | 0 | 0.0 | 0.0 | 0.00 | 0.13 | 0.01 | 52 | 1017.0 |
| 20260501231025 | 52 | 0 | 0.0 | 0.0 | 0.00 | 0.13 | 0.01 | 53 | 1017.2 |
| 20260501230530 | 52 | 0 | 0.0 | 0.0 | 0.00 | 0.13 | 0.01 | 52 | 1017.2 |
| 20260501230038 | 53 | 0 | 0.0 | 0.0 | 0.00 | 0.13 | 0.01 | 53 | 1017.2 |
| 20260501225528 | 53 | 0 | 0.0 | 1.0 | 0.00 | 0.13 | 0.01 | 53 | 1017.2 |
| 20260501225028 | 53 | 0 | 0.0 | 1.0 | 0.00 | 0.13 | 0.01 | 52 | 1017.2 |
| 20260501224539 | 53 | 0 | 0.0 | 2.0 | 0.00 | 0.13 | 0.01 | 52 | 1017.3 |
| 20260501224027 | 53 | 0 | 0.0 | 2.0 | 0.00 | 0.13 | 0.01 | 52 | 1017.3 |
| 20260501223527 | 53 | 0 | 0.0 | 0.0 | 0.00 | 0.13 | 0.01 | 51 | 1017.3 |
| 20260501223046 | 53 | 0 | 0.0 | 0.0 | 0.00 | 0.13 | 0.01 | 52 | 1017.3 |
| 20260501222527 | 54 | 0 | 0.0 | 0.0 | 0.00 | 0.13 | 0.01 | 52 | 1017.2 |
| 20260501222027 | 53 | 0 | 0.0 | 3.0 | 0.00 | 0.13 | 0.01 | 53 | 1017.2 |
| 20260501221540 | 53 | 0 | 0.0 | 3.0 | 0.00 | 0.13 | 0.01 | 54 | 1017.1 |
| 20260501221027 | 53 | 0 | 0.0 | 0.0 | 0.00 | 0.13 | 0.01 | 54 | 1017.2 |
| 20260501220526 | 53 | 0 | 0.0 | 0.0 | 0.00 | 0.13 | 0.01 | 55 | 1017.2 |
| 20260501220046 | 53 | 0 | 0.0 | 0.0 | 0.00 | 0.13 | 0.01 | 53 | 1017.3 |
| 20260501215527 | 53 | 0 | 0.0 | 0.0 | 0.00 | 0.13 | 0.01 | 53 | 1017.4 |
| 20260501215027 | 53 | 0 | 0.0 | 0.0 | 0.00 | 0.13 | 0.01 | 52 | 1017.3 |
| 20260501214551 | 54 | 0 | 0.0 | 2.0 | 0.00 | 0.13 | 0.01 | 50 | 1017.3 |
| 20260501214026 | 54 | 0 | 0.0 | 2.0 | 0.00 | 0.13 | 0.01 | 51 | 1017.5 |
| 20260501213526 | 54 | 0 | 0.0 | 1.0 | 0.00 | 0.13 | 0.01 | 53 | 1017.5 |
| 20260501213038 | 54 | 0 | 0.0 | 0.0 | 0.00 | 0.13 | 0.01 | 51 | 1017.4 |
| 20260501212526 | 54 | 0 | 0.0 | 0.0 | 0.00 | 0.13 | 0.01 | 55 | 1017.4 |
| 20260501212026 | 52 | 0 | 0.0 | 0.0 | 0.00 | 0.13 | 0.01 | 56 | 1017.5 |